sensor_id;sensor_type;location;lat;lon;timestamp;P1;durP1;ratioP1;P2;durP2;ratioP2
66628;SDS011;53532;53.084;6.352;2023-03-31T00:00:26;28.52;;;5.95;;
66628;SDS011;53532;53.084;6.352;2023-03-31T00:02:52;26.20;;;5.30;;
66628;SDS011;53532;53.084;6.352;2023-03-31T00:05:20;29.27;;;6.22;;
66628;SDS011;53532;53.084;6.352;2023-03-31T00:07:53;27.95;;;5.63;;
66628;SDS011;53532;53.084;6.352;2023-03-31T00:10:25;31.30;;;6.45;;
66628;SDS011;53532;53.084;6.352;2023-03-31T00:12:51;27.98;;;6.13;;
66628;SDS011;53532;53.084;6.352;2023-03-31T00:15:17;29.17;;;6.15;;
66628;SDS011;53532;53.084;6.352;2023-03-31T00:17:44;30.50;;;5.75;;
66628;SDS011;53532;53.084;6.352;2023-03-31T00:20:11;29.95;;;6.65;;
66628;SDS011;53532;53.084;6.352;2023-03-31T00:22:39;27.27;;;6.00;;
66628;SDS011;53532;53.084;6.352;2023-03-31T00:27:39;25.15;;;6.18;;
66628;SDS011;53532;53.084;6.352;2023-03-31T00:30:06;24.70;;;5.53;;
66628;SDS011;53532;53.084;6.352;2023-03-31T00:32:33;31.17;;;6.65;;
66628;SDS011;53532;53.084;6.352;2023-03-31T00:34:59;27.02;;;6.28;;
66628;SDS011;53532;53.084;6.352;2023-03-31T00:37:26;29.05;;;5.95;;
66628;SDS011;53532;53.084;6.352;2023-03-31T00:39:53;24.08;;;5.55;;
66628;SDS011;53532;53.084;6.352;2023-03-31T00:42:19;29.33;;;5.70;;
66628;SDS011;53532;53.084;6.352;2023-03-31T00:49:55;27.88;;;6.50;;
66628;SDS011;53532;53.084;6.352;2023-03-31T00:52:23;24.70;;;5.45;;
66628;SDS011;53532;53.084;6.352;2023-03-31T00:54:51;26.98;;;5.40;;
66628;SDS011;53532;53.084;6.352;2023-03-31T00:57:18;33.08;;;6.60;;
66628;SDS011;53532;53.084;6.352;2023-03-31T00:59:46;27.05;;;5.63;;
66628;SDS011;53532;53.084;6.352;2023-03-31T01:02:13;26.88;;;5.82;;
66628;SDS011;53532;53.084;6.352;2023-03-31T01:04:41;28.20;;;6.55;;
66628;SDS011;53532;53.084;6.352;2023-03-31T01:07:12;26.77;;;6.18;;
66628;SDS011;53532;53.084;6.352;2023-03-31T01:09:41;28.55;;;6.40;;
66628;SDS011;53532;53.084;6.352;2023-03-31T01:12:11;29.60;;;6.18;;
66628;SDS011;53532;53.084;6.352;2023-03-31T01:14:38;27.10;;;6.10;;
66628;SDS011;53532;53.084;6.352;2023-03-31T01:17:05;27.25;;;5.70;;
66628;SDS011;53532;53.084;6.352;2023-03-31T01:19:37;28.60;;;5.97;;
66628;SDS011;53532;53.084;6.352;2023-03-31T01:22:19;26.77;;;5.88;;
66628;SDS011;53532;53.084;6.352;2023-03-31T01:24:52;24.40;;;5.43;;
66628;SDS011;53532;53.084;6.352;2023-03-31T01:35:53;25.23;;;5.65;;
66628;SDS011;53532;53.084;6.352;2023-03-31T01:41:31;24.05;;;5.32;;
66628;SDS011;53532;53.084;6.352;2023-03-31T01:44:02;26.42;;;5.53;;
66628;SDS011;53532;53.084;6.352;2023-03-31T01:46:33;24.30;;;5.28;;
66628;SDS011;53532;53.084;6.352;2023-03-31T01:49:02;21.52;;;5.47;;
66628;SDS011;53532;53.084;6.352;2023-03-31T01:51:32;25.83;;;5.38;;
66628;SDS011;53532;53.084;6.352;2023-03-31T01:54:02;20.90;;;5.30;;
66628;SDS011;53532;53.084;6.352;2023-03-31T01:56:32;24.88;;;5.60;;
66628;SDS011;53532;53.084;6.352;2023-03-31T01:58:59;28.20;;;5.65;;
66628;SDS011;53532;53.084;6.352;2023-03-31T02:01:28;27.77;;;5.90;;
66628;SDS011;53532;53.084;6.352;2023-03-31T02:03:57;28.45;;;5.88;;
66628;SDS011;53532;53.084;6.352;2023-03-31T02:06:24;28.42;;;5.68;;
66628;SDS011;53532;53.084;6.352;2023-03-31T02:08:53;24.80;;;5.53;;
66628;SDS011;53532;53.084;6.352;2023-03-31T02:11:20;28.05;;;5.43;;
66628;SDS011;53532;53.084;6.352;2023-03-31T02:13:48;24.85;;;5.20;;
66628;SDS011;53532;53.084;6.352;2023-03-31T02:16:18;28.08;;;5.78;;
66628;SDS011;53532;53.084;6.352;2023-03-31T02:21:14;26.17;;;5.93;;
66628;SDS011;53532;53.084;6.352;2023-03-31T02:23:41;24.80;;;4.85;;
66628;SDS011;53532;53.084;6.352;2023-03-31T02:26:09;24.58;;;4.95;;
66628;SDS011;53532;53.084;6.352;2023-03-31T02:28:36;21.80;;;4.75;;
66628;SDS011;53532;53.084;6.352;2023-03-31T02:31:07;22.90;;;5.32;;
66628;SDS011;53532;53.084;6.352;2023-03-31T02:33:35;24.88;;;4.97;;
66628;SDS011;53532;53.084;6.352;2023-03-31T02:36:02;26.95;;;5.47;;
66628;SDS011;53532;53.084;6.352;2023-03-31T02:38:29;25.30;;;5.15;;
66628;SDS011;53532;53.084;6.352;2023-03-31T02:40:56;20.48;;;4.97;;
66628;SDS011;53532;53.084;6.352;2023-03-31T02:43:22;29.63;;;5.20;;
66628;SDS011;53532;53.084;6.352;2023-03-31T02:45:49;24.60;;;5.53;;
66628;SDS011;53532;53.084;6.352;2023-03-31T02:48:17;22.38;;;5.38;;
66628;SDS011;53532;53.084;6.352;2023-03-31T02:50:55;26.30;;;6.13;;
66628;SDS011;53532;53.084;6.352;2023-03-31T02:53:27;24.05;;;5.25;;
66628;SDS011;53532;53.084;6.352;2023-03-31T02:56:02;25.77;;;5.43;;
66628;SDS011;53532;53.084;6.352;2023-03-31T03:01:10;18.92;;;5.38;;
66628;SDS011;53532;53.084;6.352;2023-03-31T03:03:43;21.48;;;4.72;;
66628;SDS011;53532;53.084;6.352;2023-03-31T03:06:20;23.05;;;5.32;;
66628;SDS011;53532;53.084;6.352;2023-03-31T03:08:57;25.35;;;5.50;;
66628;SDS011;53532;53.084;6.352;2023-03-31T03:11:28;20.38;;;5.28;;
66628;SDS011;53532;53.084;6.352;2023-03-31T03:13:58;21.23;;;5.38;;
66628;SDS011;53532;53.084;6.352;2023-03-31T03:16:26;21.85;;;4.93;;
66628;SDS011;53532;53.084;6.352;2023-03-31T03:18:57;23.42;;;5.25;;
66628;SDS011;53532;53.084;6.352;2023-03-31T03:21:24;24.13;;;5.57;;
66628;SDS011;53532;53.084;6.352;2023-03-31T03:23:50;24.15;;;6.00;;
66628;SDS011;53532;53.084;6.352;2023-03-31T03:26:17;22.70;;;4.30;;
66628;SDS011;53532;53.084;6.352;2023-03-31T03:28:45;20.33;;;4.82;;
66628;SDS011;53532;53.084;6.352;2023-03-31T03:31:11;20.02;;;5.53;;
66628;SDS011;53532;53.084;6.352;2023-03-31T03:33:38;21.88;;;5.28;;
66628;SDS011;53532;53.084;6.352;2023-03-31T03:36:06;22.80;;;5.18;;
66628;SDS011;53532;53.084;6.352;2023-03-31T03:38:33;19.48;;;5.20;;
66628;SDS011;53532;53.084;6.352;2023-03-31T03:40:59;22.88;;;5.68;;
66628;SDS011;53532;53.084;6.352;2023-03-31T03:43:25;17.33;;;5.00;;
66628;SDS011;53532;53.084;6.352;2023-03-31T03:45:51;19.02;;;5.28;;
66628;SDS011;53532;53.084;6.352;2023-03-31T03:48:17;18.13;;;5.53;;
66628;SDS011;53532;53.084;6.352;2023-03-31T03:50:44;22.33;;;5.60;;
66628;SDS011;53532;53.084;6.352;2023-03-31T03:53:11;17.42;;;5.43;;
66628;SDS011;53532;53.084;6.352;2023-03-31T03:55:37;20.38;;;5.75;;
66628;SDS011;53532;53.084;6.352;2023-03-31T03:58:04;19.40;;;5.85;;
66628;SDS011;53532;53.084;6.352;2023-03-31T04:00:30;18.52;;;5.93;;
66628;SDS011;53532;53.084;6.352;2023-03-31T04:02:56;17.38;;;5.65;;
66628;SDS011;53532;53.084;6.352;2023-03-31T04:05:22;14.63;;;5.32;;
66628;SDS011;53532;53.084;6.352;2023-03-31T04:07:49;17.98;;;6.22;;
66628;SDS011;53532;53.084;6.352;2023-03-31T04:10:16;15.45;;;6.28;;
66628;SDS011;53532;53.084;6.352;2023-03-31T04:12:42;19.33;;;6.72;;
66628;SDS011;53532;53.084;6.352;2023-03-31T04:15:09;18.08;;;6.60;;
66628;SDS011;53532;53.084;6.352;2023-03-31T04:17:35;20.48;;;6.95;;
66628;SDS011;53532;53.084;6.352;2023-03-31T04:20:03;18.58;;;6.97;;
66628;SDS011;53532;53.084;6.352;2023-03-31T04:22:30;22.00;;;7.90;;
66628;SDS011;53532;53.084;6.352;2023-03-31T04:25:00;21.70;;;8.00;;
66628;SDS011;53532;53.084;6.352;2023-03-31T04:27:28;19.73;;;7.32;;
66628;SDS011;53532;53.084;6.352;2023-03-31T04:29:55;17.95;;;7.72;;
66628;SDS011;53532;53.084;6.352;2023-03-31T04:32:21;22.67;;;8.98;;
66628;SDS011;53532;53.084;6.352;2023-03-31T04:34:47;18.20;;;8.20;;
66628;SDS011;53532;53.084;6.352;2023-03-31T04:37:26;20.98;;;8.60;;
66628;SDS011;53532;53.084;6.352;2023-03-31T04:39:58;21.33;;;8.25;;
66628;SDS011;53532;53.084;6.352;2023-03-31T04:42:33;21.50;;;8.90;;
66628;SDS011;53532;53.084;6.352;2023-03-31T04:44:59;21.20;;;9.02;;
66628;SDS011;53532;53.084;6.352;2023-03-31T04:47:25;24.02;;;9.43;;
66628;SDS011;53532;53.084;6.352;2023-03-31T04:49:52;20.95;;;9.13;;
66628;SDS011;53532;53.084;6.352;2023-03-31T04:52:18;24.42;;;9.07;;
66628;SDS011;53532;53.084;6.352;2023-03-31T04:54:44;22.77;;;9.30;;
66628;SDS011;53532;53.084;6.352;2023-03-31T04:57:10;21.33;;;9.40;;
66628;SDS011;53532;53.084;6.352;2023-03-31T04:59:38;19.65;;;8.50;;
66628;SDS011;53532;53.084;6.352;2023-03-31T05:02:04;21.27;;;9.80;;
66628;SDS011;53532;53.084;6.352;2023-03-31T05:04:30;22.70;;;9.05;;
66628;SDS011;53532;53.084;6.352;2023-03-31T05:06:56;21.02;;;9.10;;
66628;SDS011;53532;53.084;6.352;2023-03-31T05:09:23;17.42;;;8.70;;
66628;SDS011;53532;53.084;6.352;2023-03-31T05:11:49;19.48;;;8.55;;
66628;SDS011;53532;53.084;6.352;2023-03-31T05:14:15;22.20;;;9.00;;
66628;SDS011;53532;53.084;6.352;2023-03-31T05:16:43;18.17;;;9.48;;
66628;SDS011;53532;53.084;6.352;2023-03-31T05:19:09;19.55;;;8.75;;
66628;SDS011;53532;53.084;6.352;2023-03-31T05:21:36;20.92;;;8.57;;
66628;SDS011;53532;53.084;6.352;2023-03-31T05:24:02;20.70;;;8.90;;
66628;SDS011;53532;53.084;6.352;2023-03-31T05:26:29;19.88;;;8.95;;
66628;SDS011;53532;53.084;6.352;2023-03-31T05:28:55;22.67;;;9.40;;
66628;SDS011;53532;53.084;6.352;2023-03-31T05:31:21;20.88;;;8.52;;
66628;SDS011;53532;53.084;6.352;2023-03-31T05:33:49;19.67;;;8.60;;
66628;SDS011;53532;53.084;6.352;2023-03-31T05:36:16;20.48;;;8.77;;
66628;SDS011;53532;53.084;6.352;2023-03-31T05:38:43;19.50;;;8.65;;
66628;SDS011;53532;53.084;6.352;2023-03-31T05:41:10;16.65;;;8.30;;
66628;SDS011;53532;53.084;6.352;2023-03-31T05:43:36;18.52;;;8.75;;
66628;SDS011;53532;53.084;6.352;2023-03-31T05:46:03;23.77;;;8.90;;
66628;SDS011;53532;53.084;6.352;2023-03-31T05:48:31;18.77;;;7.78;;
66628;SDS011;53532;53.084;6.352;2023-03-31T05:50:58;17.38;;;7.90;;
66628;SDS011;53532;53.084;6.352;2023-03-31T05:53:25;16.42;;;7.43;;
66628;SDS011;53532;53.084;6.352;2023-03-31T05:55:55;15.35;;;6.82;;
66628;SDS011;53532;53.084;6.352;2023-03-31T05:58:21;21.13;;;7.28;;
66628;SDS011;53532;53.084;6.352;2023-03-31T06:00:47;15.77;;;7.05;;
66628;SDS011;53532;53.084;6.352;2023-03-31T06:03:13;14.75;;;6.53;;
66628;SDS011;53532;53.084;6.352;2023-03-31T06:05:45;18.30;;;7.28;;
66628;SDS011;53532;53.084;6.352;2023-03-31T06:08:13;19.52;;;7.68;;
66628;SDS011;53532;53.084;6.352;2023-03-31T06:10:39;19.85;;;7.53;;
66628;SDS011;53532;53.084;6.352;2023-03-31T06:13:06;16.25;;;7.28;;
66628;SDS011;53532;53.084;6.352;2023-03-31T06:15:33;16.67;;;7.90;;
66628;SDS011;53532;53.084;6.352;2023-03-31T06:17:59;16.90;;;7.18;;
66628;SDS011;53532;53.084;6.352;2023-03-31T06:20:25;20.73;;;7.90;;
66628;SDS011;53532;53.084;6.352;2023-03-31T06:22:51;18.02;;;7.10;;
66628;SDS011;53532;53.084;6.352;2023-03-31T06:25:19;17.00;;;7.43;;
66628;SDS011;53532;53.084;6.352;2023-03-31T06:27:45;16.98;;;7.18;;
66628;SDS011;53532;53.084;6.352;2023-03-31T06:30:12;14.85;;;7.07;;
66628;SDS011;53532;53.084;6.352;2023-03-31T06:32:38;16.63;;;7.30;;
66628;SDS011;53532;53.084;6.352;2023-03-31T06:35:05;18.77;;;6.93;;
66628;SDS011;53532;53.084;6.352;2023-03-31T06:37:31;16.30;;;6.95;;
66628;SDS011;53532;53.084;6.352;2023-03-31T06:39:57;15.45;;;6.28;;
66628;SDS011;53532;53.084;6.352;2023-03-31T06:42:25;14.70;;;6.60;;
66628;SDS011;53532;53.084;6.352;2023-03-31T06:44:51;13.48;;;6.07;;
66628;SDS011;53532;53.084;6.352;2023-03-31T06:47:17;12.60;;;5.97;;
66628;SDS011;53532;53.084;6.352;2023-03-31T06:49:43;11.02;;;5.78;;
66628;SDS011;53532;53.084;6.352;2023-03-31T06:52:09;12.77;;;5.38;;
66628;SDS011;53532;53.084;6.352;2023-03-31T06:54:35;14.10;;;5.95;;
66628;SDS011;53532;53.084;6.352;2023-03-31T06:57:01;12.95;;;5.70;;
66628;SDS011;53532;53.084;6.352;2023-03-31T06:59:29;12.38;;;6.03;;
66628;SDS011;53532;53.084;6.352;2023-03-31T07:01:55;16.05;;;6.28;;
66628;SDS011;53532;53.084;6.352;2023-03-31T07:04:21;14.23;;;6.20;;
66628;SDS011;53532;53.084;6.352;2023-03-31T07:06:48;12.82;;;6.00;;
66628;SDS011;53532;53.084;6.352;2023-03-31T07:09:14;13.98;;;6.13;;
66628;SDS011;53532;53.084;6.352;2023-03-31T07:11:40;16.52;;;6.82;;
66628;SDS011;53532;53.084;6.352;2023-03-31T07:14:06;14.70;;;6.50;;
66628;SDS011;53532;53.084;6.352;2023-03-31T07:16:34;13.88;;;6.63;;
66628;SDS011;53532;53.084;6.352;2023-03-31T07:19:00;15.30;;;7.32;;
66628;SDS011;53532;53.084;6.352;2023-03-31T07:21:28;12.13;;;6.43;;
66628;SDS011;53532;53.084;6.352;2023-03-31T07:23:54;13.25;;;6.45;;
66628;SDS011;53532;53.084;6.352;2023-03-31T07:26:20;11.20;;;6.15;;
66628;SDS011;53532;53.084;6.352;2023-03-31T07:28:48;12.85;;;5.75;;
66628;SDS011;53532;53.084;6.352;2023-03-31T07:31:14;12.85;;;6.25;;
66628;SDS011;53532;53.084;6.352;2023-03-31T07:33:41;14.13;;;6.35;;
66628;SDS011;53532;53.084;6.352;2023-03-31T07:36:08;11.85;;;6.00;;
66628;SDS011;53532;53.084;6.352;2023-03-31T07:38:35;14.30;;;6.18;;
66628;SDS011;53532;53.084;6.352;2023-03-31T07:41:01;11.90;;;5.45;;
66628;SDS011;53532;53.084;6.352;2023-03-31T07:43:27;11.23;;;5.88;;
66628;SDS011;53532;53.084;6.352;2023-03-31T07:45:53;12.35;;;6.00;;
66628;SDS011;53532;53.084;6.352;2023-03-31T07:48:19;13.65;;;5.90;;
66628;SDS011;53532;53.084;6.352;2023-03-31T07:50:48;14.52;;;6.28;;
66628;SDS011;53532;53.084;6.352;2023-03-31T07:53:15;12.35;;;5.90;;
66628;SDS011;53532;53.084;6.352;2023-03-31T07:55:42;10.38;;;5.07;;
66628;SDS011;53532;53.084;6.352;2023-03-31T07:58:08;12.73;;;5.95;;
66628;SDS011;53532;53.084;6.352;2023-03-31T08:00:35;11.20;;;5.95;;
66628;SDS011;53532;53.084;6.352;2023-03-31T08:03:02;11.93;;;5.32;;
66628;SDS011;53532;53.084;6.352;2023-03-31T08:05:28;11.95;;;5.25;;
66628;SDS011;53532;53.084;6.352;2023-03-31T08:07:55;10.40;;;5.40;;
66628;SDS011;53532;53.084;6.352;2023-03-31T08:10:23;12.07;;;5.45;;
66628;SDS011;53532;53.084;6.352;2023-03-31T08:12:49;12.38;;;5.15;;
66628;SDS011;53532;53.084;6.352;2023-03-31T08:15:17;9.90;;;4.65;;
66628;SDS011;53532;53.084;6.352;2023-03-31T08:17:43;10.23;;;4.88;;
66628;SDS011;53532;53.084;6.352;2023-03-31T08:20:10;11.63;;;5.05;;
66628;SDS011;53532;53.084;6.352;2023-03-31T08:22:36;12.57;;;5.20;;
66628;SDS011;53532;53.084;6.352;2023-03-31T08:25:05;12.82;;;5.20;;
66628;SDS011;53532;53.084;6.352;2023-03-31T08:27:35;10.48;;;4.93;;
66628;SDS011;53532;53.084;6.352;2023-03-31T08:30:01;12.93;;;5.20;;
66628;SDS011;53532;53.084;6.352;2023-03-31T08:32:29;16.42;;;5.35;;
66628;SDS011;53532;53.084;6.352;2023-03-31T08:34:55;11.65;;;4.90;;
66628;SDS011;53532;53.084;6.352;2023-03-31T08:37:21;13.35;;;5.03;;
66628;SDS011;53532;53.084;6.352;2023-03-31T08:39:48;11.00;;;4.78;;
66628;SDS011;53532;53.084;6.352;2023-03-31T08:42:16;14.15;;;5.15;;
66628;SDS011;53532;53.084;6.352;2023-03-31T08:44:43;13.55;;;5.30;;
66628;SDS011;53532;53.084;6.352;2023-03-31T08:47:12;12.82;;;5.00;;
66628;SDS011;53532;53.084;6.352;2023-03-31T08:49:42;9.63;;;4.72;;
66628;SDS011;53532;53.084;6.352;2023-03-31T08:52:10;9.80;;;4.90;;
66628;SDS011;53532;53.084;6.352;2023-03-31T08:54:39;11.30;;;4.68;;
66628;SDS011;53532;53.084;6.352;2023-03-31T08:57:10;12.00;;;4.78;;
66628;SDS011;53532;53.084;6.352;2023-03-31T08:59:38;10.33;;;4.67;;
66628;SDS011;53532;53.084;6.352;2023-03-31T09:02:09;10.90;;;4.72;;
66628;SDS011;53532;53.084;6.352;2023-03-31T09:04:42;12.68;;;5.22;;
66628;SDS011;53532;53.084;6.352;2023-03-31T09:07:16;11.18;;;4.82;;
66628;SDS011;53532;53.084;6.352;2023-03-31T09:09:47;10.85;;;4.93;;
66628;SDS011;53532;53.084;6.352;2023-03-31T09:12:15;12.30;;;4.83;;
66628;SDS011;53532;53.084;6.352;2023-03-31T09:14:45;10.07;;;4.97;;
66628;SDS011;53532;53.084;6.352;2023-03-31T09:17:16;12.35;;;4.38;;
66628;SDS011;53532;53.084;6.352;2023-03-31T09:19:43;14.00;;;5.25;;
66628;SDS011;53532;53.084;6.352;2023-03-31T09:22:14;11.65;;;5.15;;
66628;SDS011;53532;53.084;6.352;2023-03-31T09:24:46;11.77;;;4.80;;
66628;SDS011;53532;53.084;6.352;2023-03-31T09:27:16;9.55;;;4.68;;
66628;SDS011;53532;53.084;6.352;2023-03-31T09:29:45;9.93;;;4.68;;
66628;SDS011;53532;53.084;6.352;2023-03-31T09:32:14;10.95;;;4.55;;
66628;SDS011;53532;53.084;6.352;2023-03-31T09:34:41;14.07;;;4.38;;
66628;SDS011;53532;53.084;6.352;2023-03-31T09:37:08;9.60;;;4.05;;
66628;SDS011;53532;53.084;6.352;2023-03-31T09:39:34;9.75;;;4.40;;
66628;SDS011;53532;53.084;6.352;2023-03-31T09:42:00;9.65;;;4.07;;
66628;SDS011;53532;53.084;6.352;2023-03-31T09:44:27;8.80;;;3.53;;
66628;SDS011;53532;53.084;6.352;2023-03-31T09:46:58;10.48;;;4.20;;
66628;SDS011;53532;53.084;6.352;2023-03-31T09:49:28;11.10;;;3.92;;
66628;SDS011;53532;53.084;6.352;2023-03-31T09:52:00;9.80;;;3.70;;
66628;SDS011;53532;53.084;6.352;2023-03-31T09:54:27;8.07;;;3.80;;
66628;SDS011;53532;53.084;6.352;2023-03-31T09:56:56;9.38;;;3.33;;
66628;SDS011;53532;53.084;6.352;2023-03-31T09:59:22;10.38;;;3.63;;
66628;SDS011;53532;53.084;6.352;2023-03-31T10:01:50;8.88;;;3.45;;
66628;SDS011;53532;53.084;6.352;2023-03-31T10:04:20;8.70;;;3.83;;
66628;SDS011;53532;53.084;6.352;2023-03-31T10:06:47;8.65;;;3.95;;
66628;SDS011;53532;53.084;6.352;2023-03-31T10:09:13;8.82;;;3.58;;
66628;SDS011;53532;53.084;6.352;2023-03-31T10:11:50;9.18;;;3.50;;
66628;SDS011;53532;53.084;6.352;2023-03-31T10:14:17;8.88;;;3.63;;
66628;SDS011;53532;53.084;6.352;2023-03-31T10:16:52;8.30;;;3.70;;
66628;SDS011;53532;53.084;6.352;2023-03-31T10:19:20;7.13;;;3.28;;
66628;SDS011;53532;53.084;6.352;2023-03-31T10:21:48;8.07;;;3.42;;
66628;SDS011;53532;53.084;6.352;2023-03-31T10:24:19;7.20;;;3.20;;
66628;SDS011;53532;53.084;6.352;2023-03-31T10:26:46;8.52;;;3.15;;
66628;SDS011;53532;53.084;6.352;2023-03-31T10:29:14;6.47;;;2.80;;
66628;SDS011;53532;53.084;6.352;2023-03-31T10:31:46;7.65;;;3.35;;
66628;SDS011;53532;53.084;6.352;2023-03-31T10:34:14;5.60;;;3.20;;
66628;SDS011;53532;53.084;6.352;2023-03-31T10:36:44;8.15;;;3.40;;
66628;SDS011;53532;53.084;6.352;2023-03-31T10:39:11;9.48;;;3.45;;
66628;SDS011;53532;53.084;6.352;2023-03-31T10:41:40;10.38;;;3.47;;
66628;SDS011;53532;53.084;6.352;2023-03-31T10:44:10;7.60;;;3.22;;
66628;SDS011;53532;53.084;6.352;2023-03-31T10:46:54;7.80;;;3.63;;
66628;SDS011;53532;53.084;6.352;2023-03-31T10:49:22;8.70;;;3.35;;
66628;SDS011;53532;53.084;6.352;2023-03-31T10:51:52;10.00;;;3.20;;
66628;SDS011;53532;53.084;6.352;2023-03-31T10:54:18;7.75;;;3.30;;
66628;SDS011;53532;53.084;6.352;2023-03-31T10:56:45;8.98;;;3.60;;
66628;SDS011;53532;53.084;6.352;2023-03-31T10:59:21;9.15;;;3.40;;
66628;SDS011;53532;53.084;6.352;2023-03-31T11:01:52;8.93;;;3.45;;
66628;SDS011;53532;53.084;6.352;2023-03-31T11:04:27;8.35;;;3.13;;
66628;SDS011;53532;53.084;6.352;2023-03-31T11:07:00;9.77;;;3.38;;
66628;SDS011;53532;53.084;6.352;2023-03-31T11:09:38;9.60;;;3.70;;
66628;SDS011;53532;53.084;6.352;2023-03-31T11:12:11;10.65;;;3.35;;
66628;SDS011;53532;53.084;6.352;2023-03-31T11:14:44;9.65;;;3.13;;
66628;SDS011;53532;53.084;6.352;2023-03-31T11:17:18;8.88;;;3.30;;
66628;SDS011;53532;53.084;6.352;2023-03-31T11:19:50;7.90;;;2.92;;
66628;SDS011;53532;53.084;6.352;2023-03-31T11:22:20;11.77;;;3.60;;
66628;SDS011;53532;53.084;6.352;2023-03-31T11:24:56;8.63;;;2.90;;
66628;SDS011;53532;53.084;6.352;2023-03-31T11:27:34;7.95;;;2.78;;
66628;SDS011;53532;53.084;6.352;2023-03-31T11:30:03;8.25;;;3.17;;
66628;SDS011;53532;53.084;6.352;2023-03-31T11:32:35;8.27;;;2.70;;
66628;SDS011;53532;53.084;6.352;2023-03-31T11:37:51;8.32;;;2.80;;
66628;SDS011;53532;53.084;6.352;2023-03-31T11:40:21;11.50;;;4.45;;
66628;SDS011;53532;53.084;6.352;2023-03-31T11:42:50;9.70;;;3.33;;
66628;SDS011;53532;53.084;6.352;2023-03-31T11:45:20;8.65;;;3.30;;
66628;SDS011;53532;53.084;6.352;2023-03-31T11:47:48;7.10;;;3.30;;
66628;SDS011;53532;53.084;6.352;2023-03-31T11:50:16;10.25;;;3.85;;
66628;SDS011;53532;53.084;6.352;2023-03-31T11:52:53;8.25;;;3.20;;
66628;SDS011;53532;53.084;6.352;2023-03-31T11:55:22;8.50;;;3.20;;
66628;SDS011;53532;53.084;6.352;2023-03-31T11:57:51;8.15;;;2.90;;
66628;SDS011;53532;53.084;6.352;2023-03-31T12:00:26;9.05;;;2.97;;
66628;SDS011;53532;53.084;6.352;2023-03-31T12:02:53;8.35;;;2.60;;
66628;SDS011;53532;53.084;6.352;2023-03-31T12:05:21;9.80;;;2.83;;
66628;SDS011;53532;53.084;6.352;2023-03-31T12:07:51;8.30;;;3.10;;
66628;SDS011;53532;53.084;6.352;2023-03-31T12:10:19;7.68;;;2.95;;
66628;SDS011;53532;53.084;6.352;2023-03-31T12:12:48;8.82;;;3.40;;
66628;SDS011;53532;53.084;6.352;2023-03-31T12:15:17;8.75;;;3.03;;
66628;SDS011;53532;53.084;6.352;2023-03-31T12:17:44;10.32;;;3.33;;
66628;SDS011;53532;53.084;6.352;2023-03-31T12:20:13;9.40;;;3.00;;
66628;SDS011;53532;53.084;6.352;2023-03-31T12:22:43;8.73;;;3.20;;
66628;SDS011;53532;53.084;6.352;2023-03-31T12:25:11;11.77;;;3.35;;
66628;SDS011;53532;53.084;6.352;2023-03-31T12:27:37;9.85;;;3.50;;
66628;SDS011;53532;53.084;6.352;2023-03-31T12:30:10;10.05;;;3.45;;
66628;SDS011;53532;53.084;6.352;2023-03-31T12:32:39;11.75;;;4.00;;
66628;SDS011;53532;53.084;6.352;2023-03-31T12:35:07;11.35;;;3.60;;
66628;SDS011;53532;53.084;6.352;2023-03-31T12:37:46;11.70;;;3.58;;
66628;SDS011;53532;53.084;6.352;2023-03-31T12:40:17;12.10;;;3.70;;
66628;SDS011;53532;53.084;6.352;2023-03-31T12:45:14;9.10;;;3.22;;
66628;SDS011;53532;53.084;6.352;2023-03-31T12:47:45;9.30;;;3.40;;
66628;SDS011;53532;53.084;6.352;2023-03-31T12:50:21;10.05;;;3.50;;
66628;SDS011;53532;53.084;6.352;2023-03-31T12:52:52;9.00;;;3.50;;
66628;SDS011;53532;53.084;6.352;2023-03-31T12:55:30;7.80;;;3.50;;
66628;SDS011;53532;53.084;6.352;2023-03-31T13:00:41;9.20;;;3.13;;
66628;SDS011;53532;53.084;6.352;2023-03-31T13:03:36;11.02;;;3.60;;
66628;SDS011;53532;53.084;6.352;2023-03-31T13:06:03;8.70;;;3.30;;
66628;SDS011;53532;53.084;6.352;2023-03-31T13:08:49;8.98;;;3.50;;
66628;SDS011;53532;53.084;6.352;2023-03-31T13:11:16;10.40;;;3.65;;
66628;SDS011;53532;53.084;6.352;2023-03-31T13:13:43;11.60;;;3.60;;
66628;SDS011;53532;53.084;6.352;2023-03-31T13:16:12;12.02;;;4.07;;
66628;SDS011;53532;53.084;6.352;2023-03-31T13:18:44;8.70;;;3.30;;
66628;SDS011;53532;53.084;6.352;2023-03-31T13:21:15;19.35;;;4.15;;
66628;SDS011;53532;53.084;6.352;2023-03-31T13:23:42;11.02;;;3.80;;
66628;SDS011;53532;53.084;6.352;2023-03-31T13:34:15;10.77;;;3.13;;
66628;SDS011;53532;53.084;6.352;2023-03-31T13:36:54;10.85;;;3.05;;
66628;SDS011;53532;53.084;6.352;2023-03-31T13:42:12;8.73;;;1.90;;
66628;SDS011;53532;53.084;6.352;2023-03-31T13:44:47;5.05;;;1.60;;
66628;SDS011;53532;53.084;6.352;2023-03-31T13:50:15;6.35;;;1.65;;
66628;SDS011;53532;53.084;6.352;2023-03-31T13:52:43;6.13;;;1.65;;
66628;SDS011;53532;53.084;6.352;2023-03-31T13:58:09;5.63;;;1.85;;
66628;SDS011;53532;53.084;6.352;2023-03-31T14:05:53;6.15;;;1.83;;
66628;SDS011;53532;53.084;6.352;2023-03-31T14:08:23;6.55;;;1.60;;
66628;SDS011;53532;53.084;6.352;2023-03-31T14:10:55;5.78;;;1.77;;
66628;SDS011;53532;53.084;6.352;2023-03-31T14:13:40;5.95;;;1.83;;
66628;SDS011;53532;53.084;6.352;2023-03-31T14:16:06;7.05;;;1.90;;
66628;SDS011;53532;53.084;6.352;2023-03-31T14:18:34;7.78;;;1.85;;
66628;SDS011;53532;53.084;6.352;2023-03-31T14:21:06;10.75;;;2.10;;
66628;SDS011;53532;53.084;6.352;2023-03-31T14:23:39;8.70;;;2.17;;
66628;SDS011;53532;53.084;6.352;2023-03-31T14:26:09;7.00;;;1.90;;
66628;SDS011;53532;53.084;6.352;2023-03-31T14:28:48;7.78;;;2.13;;
66628;SDS011;53532;53.084;6.352;2023-03-31T14:31:19;7.22;;;2.08;;
66628;SDS011;53532;53.084;6.352;2023-03-31T14:33:50;6.82;;;1.75;;
66628;SDS011;53532;53.084;6.352;2023-03-31T14:36:23;9.07;;;1.98;;
66628;SDS011;53532;53.084;6.352;2023-03-31T14:38:52;9.70;;;2.15;;
66628;SDS011;53532;53.084;6.352;2023-03-31T14:41:19;7.50;;;1.90;;
66628;SDS011;53532;53.084;6.352;2023-03-31T14:43:53;6.13;;;2.00;;
66628;SDS011;53532;53.084;6.352;2023-03-31T14:46:21;6.35;;;1.83;;
66628;SDS011;53532;53.084;6.352;2023-03-31T14:48:47;8.77;;;1.60;;
66628;SDS011;53532;53.084;6.352;2023-03-31T14:51:15;6.57;;;1.60;;
66628;SDS011;53532;53.084;6.352;2023-03-31T14:53:43;4.93;;;1.48;;
66628;SDS011;53532;53.084;6.352;2023-03-31T14:56:10;6.40;;;1.52;;
66628;SDS011;53532;53.084;6.352;2023-03-31T14:58:37;4.65;;;1.30;;
66628;SDS011;53532;53.084;6.352;2023-03-31T15:01:05;5.93;;;1.30;;
66628;SDS011;53532;53.084;6.352;2023-03-31T15:03:32;5.40;;;1.13;;
66628;SDS011;53532;53.084;6.352;2023-03-31T15:05:59;5.78;;;1.20;;
66628;SDS011;53532;53.084;6.352;2023-03-31T15:08:26;4.07;;;1.25;;
66628;SDS011;53532;53.084;6.352;2023-03-31T15:10:56;7.82;;;1.50;;
66628;SDS011;53532;53.084;6.352;2023-03-31T15:13:24;6.80;;;1.50;;
66628;SDS011;53532;53.084;6.352;2023-03-31T15:15:52;5.00;;;1.50;;
66628;SDS011;53532;53.084;6.352;2023-03-31T15:18:18;6.20;;;1.52;;
66628;SDS011;53532;53.084;6.352;2023-03-31T15:20:44;6.38;;;1.55;;
66628;SDS011;53532;53.084;6.352;2023-03-31T15:23:18;4.82;;;1.60;;
66628;SDS011;53532;53.084;6.352;2023-03-31T15:25:49;6.80;;;1.60;;
66628;SDS011;53532;53.084;6.352;2023-03-31T15:28:18;5.10;;;1.40;;
66628;SDS011;53532;53.084;6.352;2023-03-31T15:30:44;6.10;;;1.52;;
66628;SDS011;53532;53.084;6.352;2023-03-31T15:33:15;6.28;;;1.50;;
66628;SDS011;53532;53.084;6.352;2023-03-31T15:35:43;5.17;;;1.50;;
66628;SDS011;53532;53.084;6.352;2023-03-31T15:38:10;6.03;;;1.80;;
66628;SDS011;53532;53.084;6.352;2023-03-31T15:40:37;6.35;;;1.77;;